Time;durP1;ratioP1;P1;durP2;ratioP2;P2;SDS_P1;SDS_P2;PMS_P1;PMS_P2;Temp;Humidity;BMP_temperature;BMP_pressure;BME280_temperature;BME280_humidity;BME280_pressure;Samples;Min_cycle;Max_cycle;Signal;HPM_P1;HPM_P2
2022/11/16 00:00:45;;;;;;;6.95;6.25;;;10.10;99.90;;;;;;5008549;28;20113;-76
2022/11/16 00:03:11;;;;;;;7.03;5.38;;;10.10;99.90;;;;;;5008137;28;20373;-77
2022/11/16 00:05:39;;;;;;;8.68;6.55;;;10.10;99.90;;;;;;5008120;28;20054;-77
2022/11/16 00:08:05;;;;;;;10.52;6.90;;;10.10;99.90;;;;;;5008495;28;20464;-75
2022/11/16 00:10:31;;;;;;;30.73;6.95;;;10.10;99.90;;;;;;5007478;28;20114;-76
2022/11/16 00:12:56;;;;;;;8.30;6.60;;;10.30;99.90;;;;;;4990131;28;20346;-75
2022/11/16 00:15:22;;;;;;;7.93;5.93;;;10.20;99.90;;;;;;5008096;28;20045;-75
2022/11/16 00:17:48;;;;;;;8.02;7.22;;;10.40;99.90;;;;;;4989587;28;20378;-75
2022/11/16 00:20:14;;;;;;;12.77;7.00;;;10.20;99.90;;;;;;5007679;28;20465;-77
2022/11/16 00:22:39;;;;;;;11.70;7.05;;;10.10;99.90;;;;;;4989775;28;20251;-76
2022/11/16 00:25:06;;;;;;;9.65;8.65;;;10.30;99.90;;;;;;4974660;28;20560;-76
2022/11/16 00:27:31;;;;;;;11.68;7.90;;;10.20;99.90;;;;;;4989848;28;20054;-75
2022/11/16 00:29:57;;;;;;;7.75;6.95;;;10.20;99.90;;;;;;4990402;28;20053;-76
2022/11/16 00:32:23;;;;;;;13.13;8.30;;;10.30;99.90;;;;;;5007558;28;20050;-75
2022/11/16 00:34:49;;;;;;;11.07;7.03;;;10.30;99.90;;;;;;4989596;28;20042;-77
2022/11/16 00:37:14;;;;;;;11.32;8.77;;;10.40;99.90;;;;;;4989933;28;20416;-76
2022/11/16 00:39:40;;;;;;;9.55;7.82;;;10.30;99.90;;;;;;5006833;28;20038;-74
2022/11/16 00:42:06;;;;;;;13.55;8.27;;;10.20;99.90;;;;;;5006095;28;20066;-77
2022/11/16 00:44:31;;;;;;;9.98;8.90;;;10.40;99.90;;;;;;5007843;28;20034;-76
2022/11/16 00:46:57;;;;;;;11.98;9.65;;;10.40;99.90;;;;;;4989313;28;20125;-75
2022/11/16 00:49:23;;;;;;;12.52;9.88;;;10.20;99.90;;;;;;4973814;28;20054;-75
2022/11/16 00:51:48;;;;;;;10.63;9.52;;;10.20;99.90;;;;;;4989264;28;20412;-76
2022/11/16 00:54:14;;;;;;;13.55;9.15;;;10.20;99.90;;;;;;4989912;28;20073;-76
2022/11/16 00:56:40;;;;;;;11.48;9.70;;;10.20;99.90;;;;;;5005955;28;20327;-75
2022/11/16 00:59:06;;;;;;;17.33;10.35;;;10.30;99.90;;;;;;4989654;28;20103;-76
2022/11/16 01:01:31;;;;;;;13.93;11.55;;;10.20;99.90;;;;;;4990293;28;20397;-75
2022/11/16 01:03:57;;;;;;;13.10;10.50;;;10.40;99.90;;;;;;4988228;28;20049;-76
2022/11/16 01:06:23;;;;;;;11.43;9.60;;;10.30;99.90;;;;;;4973529;28;20042;-77
2022/11/16 01:08:49;;;;;;;16.77;10.98;;;10.40;99.90;;;;;;5006586;28;20133;-77
2022/11/16 01:14:05;;;;;;;14.43;10.43;;;10.60;99.90;;;;;;5006784;28;20046;-75
2022/11/16 01:16:31;;;;;;;12.35;10.95;;;10.40;99.90;;;;;;5006588;28;20069;-76
2022/11/16 01:18:58;;;;;;;15.38;11.88;;;10.20;99.90;;;;;;5004836;28;20104;-75
2022/11/16 01:21:23;;;;;;;12.80;11.10;;;10.10;99.90;;;;;;4989414;28;20042;-76
2022/11/16 01:23:50;;;;;;;16.40;11.75;;;10.60;99.90;;;;;;5006156;28;20052;-76
2022/11/16 01:26:17;;;;;;;13.88;12.10;;;10.40;99.90;;;;;;4990310;28;20132;-75
2022/11/16 01:28:42;;;;;;;17.13;13.77;;;10.20;99.90;;;;;;4988746;28;20236;-75
2022/11/16 01:31:09;;;;;;;13.57;11.77;;;10.60;99.90;;;;;;5006593;28;20133;-76
2022/11/16 01:33:35;;;;;;;16.70;13.80;;;10.70;99.90;;;;;;4973083;28;20133;-76
2022/11/16 01:36:01;;;;;;;17.92;12.23;;;10.30;99.90;;;;;;4988673;28;20404;-77
2022/11/16 01:38:26;;;;;;;15.20;13.10;;;10.20;99.90;;;;;;5006486;28;20048;-76
2022/11/16 01:40:52;;;;;;;14.60;12.93;;;10.50;99.90;;;;;;5005240;28;20546;-76
2022/11/16 01:43:22;;;;;;;17.15;13.75;;;10.30;99.90;;;;;;5006760;28;20100;-76
2022/11/16 01:45:48;;;;;;;;;;;10.80;99.90;;;;;;4988948;28;20046;-77
2022/11/16 01:48:19;;;;;;;15.23;13.63;;;10.30;99.90;;;;;;5006366;28;20095;-76
2022/11/16 01:50:46;;;;;;;15.75;13.18;;;10.20;99.90;;;;;;5005557;28;20046;-76
2022/11/16 01:53:12;;;;;;;15.43;12.85;;;10.80;99.90;;;;;;4988372;28;20041;-76
2022/11/16 01:55:40;;;;;;;18.17;13.57;;;10.70;99.90;;;;;;4997293;28;20125;-76
2022/11/16 01:58:06;;;;;;;17.02;14.98;;;10.70;99.90;;;;;;5002939;28;20050;-77
2022/11/16 02:00:32;;;;;;;19.15;14.98;;;10.80;99.90;;;;;;5006372;28;20433;-76
2022/11/16 02:02:58;;;;;;;17.88;13.68;;;10.30;99.90;;;;;;5005739;28;20042;-76
2022/11/16 02:05:37;;;;;;;14.85;13.30;;;10.30;99.90;;;;;;5006166;28;20046;-77
2022/11/16 02:11:28;;;;;;;20.17;15.43;;;10.20;99.90;;;;;;4986611;28;20297;-77
2022/11/16 02:14:09;;;;;;;17.75;15.07;;;10.20;99.90;;;;;;4971879;28;20049;-76
2022/11/16 02:16:59;;;;;;;20.92;15.75;;;10.70;99.90;;;;;;5005819;28;20408;-76
2022/11/16 02:19:48;;;;;;;19.38;16.85;;;10.30;99.90;;;;;;5006179;28;20283;-77
2022/11/16 02:22:36;;;;;;;16.80;13.52;;;10.30;99.90;;;;;;5008344;28;20057;-76
2022/11/16 02:25:33;;;;;;;17.45;15.45;;;10.30;99.90;;;;;;4992265;28;20042;-76
2022/11/16 02:28:13;;;;;;;19.50;15.55;;;10.90;99.90;;;;;;4974412;28;20089;-76
2022/11/16 02:30:44;;;;;;;17.88;15.07;;;10.70;99.90;;;;;;5009917;28;20105;-77
2022/11/16 02:33:15;;;;;;;17.27;14.98;;;10.80;99.90;;;;;;5010753;28;20319;-76
2022/11/16 02:35:55;;;;;;;17.85;14.25;;;10.80;99.90;;;;;;4992338;28;20041;-76
2022/11/16 02:38:28;;;;;;;20.25;16.13;;;10.70;99.90;;;;;;5012094;28;20306;-76
2022/11/16 02:41:03;;;;;;;17.83;14.13;;;10.20;99.90;;;;;;5006312;28;20041;-76
2022/11/16 02:43:34;;;;;;;17.10;13.90;;;10.90;99.90;;;;;;4988449;28;20120;-77
2022/11/16 02:46:07;;;;;;;18.27;14.82;;;10.20;99.90;;;;;;4972249;28;20551;-77
2022/11/16 02:48:41;;;;;;;18.02;15.07;;;10.90;99.90;;;;;;4972135;28;20050;-77
2022/11/16 02:51:07;;;;;;;18.40;14.02;;;10.80;99.90;;;;;;4971593;28;20092;-76
2022/11/16 02:53:40;;;;;;;20.60;13.40;;;11.00;99.90;;;;;;4988355;28;20060;-75
2022/11/16 02:56:05;;;;;;;17.63;14.75;;;10.20;99.90;;;;;;5004495;28;20040;-77
2022/11/16 02:58:31;;;;;;;16.90;14.75;;;11.00;99.90;;;;;;4987848;28;20049;-76
2022/11/16 03:01:07;;;;;;;20.45;14.63;;;10.20;99.90;;;;;;5005378;28;20065;-76
2022/11/16 03:03:44;;;;;;;21.08;14.50;;;10.90;99.90;;;;;;4988104;28;20034;-77
2022/11/16 03:06:18;;;;;;;20.63;15.48;;;10.40;99.90;;;;;;5005350;28;20112;-76
2022/11/16 03:08:51;;;;;;;17.52;14.10;;;10.80;99.90;;;;;;5005227;28;20050;-77
2022/11/16 03:14:08;;;;;;;18.73;14.80;;;10.50;99.90;;;;;;4988233;28;20424;-76
2022/11/16 03:16:42;;;;;;;17.50;13.55;;;10.40;99.90;;;;;;4987908;28;20382;-77
2022/11/16 03:19:11;;;;;;;17.90;15.45;;;10.30;99.90;;;;;;4987608;28;20081;-76
2022/11/16 03:21:47;;;;;;;19.27;14.67;;;10.50;99.90;;;;;;5005207;28;20121;-76
2022/11/16 03:24:14;;;;;;;16.60;14.90;;;10.20;99.90;;;;;;4984950;28;20339;-75
2022/11/16 03:26:50;;;;;;;18.00;13.82;;;10.90;99.90;;;;;;4984763;28;20494;-76
2022/11/16 03:29:32;;;;;;;20.27;16.23;;;10.20;99.90;;;;;;4989039;28;20043;-77
2022/11/16 03:32:10;;;;;;;15.35;13.05;;;10.70;99.90;;;;;;4989134;28;20490;-77
2022/11/16 03:34:37;;;;;;;20.95;15.52;;;10.70;99.90;;;;;;4974570;28;20046;-77
2022/11/16 03:37:05;;;;;;;17.80;13.57;;;10.90;99.90;;;;;;5008474;28;20125;-76
2022/11/16 03:39:38;;;;;;;22.27;15.23;;;10.30;99.90;;;;;;5009146;28;20054;-76
2022/11/16 03:42:09;;;;;;;19.67;15.20;;;10.90;99.90;;;;;;5009165;28;20140;-77
2022/11/16 03:44:37;;;;;;;17.52;14.07;;;10.40;99.90;;;;;;5008626;28;20504;-76
2022/11/16 03:47:03;;;;;;;19.23;15.05;;;10.90;99.90;;;;;;5008276;28;20045;-77
2022/11/16 03:49:30;;;;;;;17.85;14.77;;;10.20;99.90;;;;;;5008527;28;20042;-76
2022/11/16 03:51:57;;;;;;;17.35;14.32;;;10.50;99.90;;;;;;5008097;28;20417;-76
2022/11/16 03:54:23;;;;;;;19.88;15.60;;;11.00;99.90;;;;;;4990358;28;20042;-77
2022/11/16 03:56:48;;;;;;;17.05;13.60;;;10.80;99.90;;;;;;4989468;28;20467;-77
2022/11/16 03:59:14;;;;;;;15.57;14.02;;;10.90;99.90;;;;;;5008606;28;20042;-76
2022/11/16 04:01:40;;;;;;;16.70;12.63;;;11.10;99.90;;;;;;4990716;28;20396;-77
2022/11/16 04:04:05;;;;;;;20.10;14.93;;;10.50;99.90;;;;;;5008250;28;20046;-76
2022/11/16 04:26:08;;;;;;;15.20;12.55;;;10.70;99.90;;;;;;4989763;28;20056;-78
2022/11/16 04:28:34;;;;;;;15.18;12.38;;;10.80;99.90;;;;;;4990850;28;20042;-79
2022/11/16 04:39:16;;;;;;;17.60;12.32;;;10.40;99.90;;;;;;4990425;28;20056;-76
2022/11/16 04:47:05;;;;;;;15.50;12.02;;;10.90;99.90;;;;;;4990093;28;20053;-76
2022/11/16 04:47:12;;;;;;;17.73;13.15;;;10.90;99.90;;;;;;4989485;28;20072;-77
2022/11/16 04:49:37;;;;;;;15.57;12.07;;;10.60;99.90;;;;;;5007291;28;20049;-76
2022/11/16 04:52:03;;;;;;;16.98;13.80;;;10.70;99.90;;;;;;4990158;28;20519;-76
2022/11/16 04:54:29;;;;;;;17.33;12.68;;;10.30;99.90;;;;;;4988314;28;20496;-76
2022/11/16 04:56:54;;;;;;;15.20;13.40;;;10.50;99.90;;;;;;4989281;28;20077;-76
2022/11/16 04:59:20;;;;;;;16.40;12.10;;;10.40;99.90;;;;;;5006813;28;20050;-77
2022/11/16 05:04:30;;;;;;;12.95;11.00;;;10.60;99.90;;;;;;4992403;28;20050;-76
2022/11/16 05:06:56;;;;;;;16.35;12.25;;;10.80;99.90;;;;;;5006948;28;20582;-76
2022/11/16 05:09:21;;;;;;;16.23;12.70;;;10.30;99.90;;;;;;5006542;28;20072;-76
2022/11/16 05:11:47;;;;;;;16.67;13.50;;;10.40;99.90;;;;;;4972873;28;20058;-76
2022/11/16 05:14:13;;;;;;;12.38;11.07;;;10.30;99.90;;;;;;4989761;28;20400;-76
2022/11/16 05:16:38;;;;;;;14.80;11.65;;;10.80;99.90;;;;;;5006746;28;20436;-77
2022/11/16 05:21:48;;;;;;;16.92;13.55;;;10.30;99.90;;;;;;4989148;28;20057;-75
2022/11/16 05:24:32;;;;;;;13.80;12.38;;;10.80;99.90;;;;;;4973152;28;20038;-77
2022/11/16 05:27:02;;;;;;;14.30;12.25;;;10.30;99.90;;;;;;5006712;28;20049;-76
2022/11/16 05:29:28;;;;;;;;;;;11.00;99.90;;;;;;4989560;28;20046;-77
2022/11/16 05:31:54;;;;;;;18.42;13.30;;;11.00;99.90;;;;;;4988921;28;19983;-76
2022/11/16 05:34:20;;;;;;;19.20;14.60;;;11.10;99.90;;;;;;5007145;28;20061;-75
2022/11/16 05:36:45;;;;;;;17.52;14.07;;;10.80;99.90;;;;;;4973684;28;20045;-76
2022/11/16 05:39:11;;;;;;;19.13;13.65;;;10.40;99.90;;;;;;5006869;28;20824;-75
2022/11/16 05:41:37;;;;;;;17.83;14.65;;;10.80;99.90;;;;;;4990014;28;20042;-76
2022/11/16 05:44:03;;;;;;;17.40;13.85;;;10.80;99.90;;;;;;4991462;28;20038;-76
2022/11/16 05:46:29;;;;;;;15.55;12.98;;;10.50;99.90;;;;;;4991015;28;20468;-76
2022/11/16 05:48:55;;;;;;;16.60;13.73;;;10.60;99.90;;;;;;4974038;28;20126;-75
2022/11/16 05:51:20;;;;;;;16.90;13.23;;;11.00;99.90;;;;;;4989157;28;20446;-77
2022/11/16 05:53:48;;;;;;;17.88;14.05;;;11.00;99.90;;;;;;4988663;28;20085;-75
2022/11/16 05:56:14;;;;;;;17.63;14.00;;;10.40;99.90;;;;;;4989746;28;20054;-76
2022/11/16 05:58:42;;;;;;;15.20;12.50;;;10.60;99.90;;;;;;5006336;28;20038;-75
2022/11/16 06:01:08;;;;;;;15.65;12.60;;;10.50;99.90;;;;;;4988810;28;20054;-76
2022/11/16 06:03:35;;;;;;;14.82;12.57;;;10.80;99.90;;;;;;5006779;28;20124;-76
2022/11/16 06:06:02;;;;;;;15.77;13.23;;;10.50;99.90;;;;;;4972817;28;20038;-76
2022/11/16 06:08:28;;;;;;;16.15;12.88;;;10.50;99.90;;;;;;4989006;28;20096;-76
2022/11/16 06:10:55;;;;;;;15.02;13.32;;;11.10;99.90;;;;;;5004896;28;20425;-77
2022/11/16 06:13:21;;;;;;;16.52;13.50;;;11.00;99.90;;;;;;5006532;28;20042;-76
2022/11/16 06:15:46;;;;;;;16.40;13.60;;;10.80;99.90;;;;;;4987969;28;20500;-77
2022/11/16 06:18:12;;;;;;;19.70;14.57;;;10.60;99.90;;;;;;4972622;28;20165;-76
2022/11/16 06:20:39;;;;;;;17.52;14.68;;;11.10;99.90;;;;;;4989006;28;20089;-76
2022/11/16 06:23:05;;;;;;;18.52;14.82;;;10.50;99.90;;;;;;4989495;28;20430;-76
2022/11/16 06:25:31;;;;;;;16.88;14.15;;;10.60;99.90;;;;;;4988016;28;20034;-76
2022/11/16 06:27:57;;;;;;;21.73;15.15;;;10.70;99.90;;;;;;4988673;28;20046;-76
2022/11/16 06:30:23;;;;;;;18.25;14.18;;;11.10;99.90;;;;;;4988787;28;20050;-75
2022/11/16 06:32:49;;;;;;;18.25;14.38;;;10.90;99.90;;;;;;5005939;28;20107;-77
2022/11/16 06:35:15;;;;;;;20.48;14.65;;;10.80;99.90;;;;;;4972527;28;20054;-76
2022/11/16 06:37:44;;;;;;;18.13;14.82;;;10.60;99.90;;;;;;4970702;28;20335;-77
2022/11/16 06:40:10;;;;;;;16.42;13.52;;;10.90;99.90;;;;;;5005590;28;20504;-76
2022/11/16 06:42:36;;;;;;;20.85;14.27;;;10.90;99.90;;;;;;4988615;28;20454;-75
2022/11/16 06:45:02;;;;;;;17.85;13.43;;;11.00;99.90;;;;;;5006468;28;20204;-75
2022/11/16 06:47:28;;;;;;;15.45;13.38;;;10.50;99.90;;;;;;4989027;28;20144;-76
2022/11/16 06:49:53;;;;;;;17.63;13.38;;;10.80;99.90;;;;;;4972350;28;20497;-76
2022/11/16 06:52:19;;;;;;;16.83;13.85;;;10.60;99.90;;;;;;4988249;28;20061;-76
2022/11/16 06:54:45;;;;;;;23.48;18.05;;;11.00;99.90;;;;;;5004689;28;20046;-75
2022/11/16 06:57:10;;;;;;;23.23;18.08;;;10.50;99.90;;;;;;4988567;28;20351;-75
2022/11/16 06:59:36;;;;;;;20.15;15.98;;;10.30;99.90;;;;;;4987920;28;20046;-76
2022/11/16 07:02:02;;;;;;;18.08;14.32;;;10.90;99.90;;;;;;4989760;28;20077;-75
2022/11/16 07:04:28;;;;;;;15.50;13.68;;;10.70;99.90;;;;;;5009459;28;20465;-76
2022/11/16 07:06:54;;;;;;;18.67;14.20;;;10.50;99.90;;;;;;5009665;28;20050;-76
2022/11/16 07:09:19;;;;;;;14.82;13.23;;;10.60;99.90;;;;;;5008677;28;20071;-74
2022/11/16 07:11:45;;;;;;;19.27;14.18;;;10.40;99.90;;;;;;4988217;28;20149;-76
2022/11/16 07:14:11;;;;;;;18.23;12.60;;;10.80;99.90;;;;;;4991236;28;20042;-76
2022/11/16 07:16:37;;;;;;;14.68;11.75;;;10.90;99.90;;;;;;4989740;28;20513;-76
2022/11/16 07:19:03;;;;;;;14.45;11.20;;;10.80;99.90;;;;;;4990294;28;20053;-76
2022/11/16 07:21:29;;;;;;;15.75;11.73;;;10.20;99.90;;;;;;4989786;28;20090;-76
2022/11/16 07:23:55;;;;;;;13.88;12.00;;;10.40;99.90;;;;;;4988657;28;20359;-77
2022/11/16 07:26:21;;;;;;;14.02;11.65;;;10.20;99.90;;;;;;4988955;28;20104;-77
2022/11/16 07:28:46;;;;;;;12.35;11.10;;;10.50;99.90;;;;;;4971977;28;20050;-76
2022/11/16 07:31:13;;;;;;;15.00;11.35;;;10.50;99.90;;;;;;4988823;28;20034;-77
2022/11/16 07:33:39;;;;;;;16.67;13.68;;;10.10;99.90;;;;;;4988474;28;20058;-76
2022/11/16 07:36:08;;;;;;;15.63;12.38;;;10.30;99.90;;;;;;4990161;28;20520;-76
2022/11/16 07:38:34;;;;;;;16.38;11.30;;;10.20;99.90;;;;;;4972248;28;20046;-75
2022/11/16 07:41:06;;;;;;;14.93;12.68;;;10.40;99.90;;;;;;4988294;28;20085;-76
2022/11/16 07:43:36;;;;;;;16.67;13.93;;;10.70;99.90;;;;;;4988752;28;20319;-76
2022/11/16 07:46:14;;;;;;;21.17;13.95;;;10.40;99.90;;;;;;4989886;28;20052;-76
2022/11/16 07:48:43;;;;;;;18.77;13.52;;;10.70;99.90;;;;;;4988698;28;20089;-76
2022/11/16 07:51:11;;;;;;;18.10;14.02;;;10.70;99.90;;;;;;4988419;28;20042;-76
2022/11/16 07:53:37;;;;;;;18.27;14.88;;;10.10;99.90;;;;;;4987567;28;20050;-76
2022/11/16 07:56:04;;;;;;;19.10;15.73;;;10.70;99.90;;;;;;4988782;28;20096;-76
2022/11/16 07:58:34;;;;;;;19.77;15.43;;;10.20;99.90;;;;;;4988972;28;20038;-76
2022/11/16 08:01:05;;;;;;;19.05;14.95;;;10.50;99.90;;;;;;4987862;28;20093;-76
2022/11/16 08:03:32;;;;;;;17.95;14.68;;;10.10;99.90;;;;;;4990008;28;20132;-76
2022/11/16 08:06:05;;;;;;;18.85;15.20;;;10.60;99.90;;;;;;4989054;28;20515;-76
2022/11/16 08:08:31;;;;;;;18.73;14.35;;;10.30;99.90;;;;;;4988801;28;20038;-76
2022/11/16 08:11:08;;;;;;;18.88;14.38;;;10.30;99.90;;;;;;4986227;28;20153;-76
2022/11/16 08:13:37;;;;;;;22.55;13.77;;;10.40;99.90;;;;;;4988543;28;20108;-77
2022/11/16 08:16:09;;;;;;;15.60;14.00;;;10.20;99.90;;;;;;4989328;28;20326;-76
2022/11/16 08:18:36;;;;;;;18.88;14.77;;;10.60;99.90;;;;;;4987753;28;20493;-76
2022/11/16 08:21:03;;;;;;;18.98;13.73;;;10.30;99.90;;;;;;4989269;28;20047;-76
2022/11/16 08:23:30;;;;;;;16.90;13.40;;;10.50;99.90;;;;;;4989140;28;20549;-76
2022/11/16 08:26:04;;;;;;;14.98;12.75;;;10.30;99.90;;;;;;4987517;28;20050;-76
2022/11/16 08:28:31;;;;;;;14.20;12.45;;;10.50;99.90;;;;;;4989230;28;20052;-76
2022/11/16 08:30:57;;;;;;;17.40;13.13;;;10.00;99.90;;;;;;4988479;28;20051;-75
2022/11/16 08:33:23;;;;;;;19.27;12.27;;;9.90;99.90;;;;;;4989046;28;20039;-77
2022/11/16 08:35:53;;;;;;;14.63;11.43;;;10.50;99.90;;;;;;4987865;28;20054;-76
2022/11/16 08:38:19;;;;;;;14.43;11.95;;;10.60;99.90;;;;;;4987240;28;20057;-76
2022/11/16 08:40:46;;;;;;;14.57;11.10;;;10.00;99.90;;;;;;4986591;28;20402;-76
2022/11/16 08:43:12;;;;;;;13.02;11.32;;;10.10;99.90;;;;;;4989677;28;20042;-76
2022/11/16 08:45:38;;;;;;;14.07;10.00;;;10.00;99.90;;;;;;4988082;28;20073;-77
2022/11/16 08:48:04;;;;;;;14.20;9.35;;;10.70;99.90;;;;;;4989062;28;20124;-75
2022/11/16 08:50:31;;;;;;;14.73;10.48;;;10.10;99.90;;;;;;4990046;28;20476;-76
2022/11/16 08:52:57;;;;;;;19.90;11.38;;;10.10;99.90;;;;;;4991570;28;20073;-76
2022/11/16 08:55:24;;;;;;;13.57;9.73;;;10.10;99.90;;;;;;4973293;28;20042;-75
2022/11/16 08:57:49;;;;;;;15.25;9.98;;;10.40;99.90;;;;;;4989405;28;20065;-76
2022/11/16 09:00:16;;;;;;;13.90;10.48;;;10.30;99.90;;;;;;4990279;28;20398;-75
2022/11/16 09:02:42;;;;;;;13.32;10.90;;;10.60;99.90;;;;;;4986908;28;20065;-76
2022/11/16 09:05:10;;;;;;;20.10;9.95;;;10.50;99.90;;;;;;4986954;28;20043;-75
2022/11/16 09:07:38;;;;;;;15.55;9.95;;;10.50;99.90;;;;;;4987801;28;20038;-76
2022/11/16 09:10:04;;;;;;;13.13;9.55;;;10.60;99.90;;;;;;4987417;28;20038;-76
2022/11/16 09:12:30;;;;;;;11.73;8.82;;;10.90;99.90;;;;;;4986337;28;20112;-77
2022/11/16 09:14:56;;;;;;;14.05;10.25;;;10.80;99.90;;;;;;4987280;28;20049;-74
2022/11/16 09:17:21;;;;;;;16.42;11.02;;;10.40;99.90;;;;;;4988060;28;20038;-76
2022/11/16 09:19:48;;;;;;;16.50;10.20;;;10.90;99.90;;;;;;4986211;28;20062;-76
2022/11/16 09:22:14;;;;;;;18.75;13.18;;;11.00;99.90;;;;;;4986210;28;20375;-74
2022/11/16 09:24:39;;;;;;;14.63;11.95;;;10.40;99.90;;;;;;4983477;28;20054;-76
2022/11/16 09:27:05;;;;;;;15.05;10.68;;;11.00;99.90;;;;;;4986100;28;20088;-75
2022/11/16 09:29:31;;;;;;;17.20;11.80;;;10.90;99.90;;;;;;4988065;28;20038;-75
2022/11/16 09:31:57;;;;;;;12.32;10.68;;;10.50;99.90;;;;;;4985802;28;20145;-76
2022/11/16 09:34:23;;;;;;;19.92;11.70;;;10.70;99.90;;;;;;4987586;28;20070;-75
2022/11/16 09:36:49;;;;;;;16.90;12.00;;;11.00;99.90;;;;;;4986819;28;20050;-76
2022/11/16 09:39:15;;;;;;;12.70;10.77;;;11.30;99.90;;;;;;4985553;28;20056;-75
2022/11/16 09:42:14;;;;;;;17.17;11.23;;;11.10;99.90;;;;;;4986933;28;20497;-75
2022/11/16 09:45:03;;;;;;;24.27;13.25;;;11.30;99.90;;;;;;4984957;28;20539;-76
2022/11/16 09:47:44;;;;;;;27.52;13.43;;;11.10;99.90;;;;;;4985853;28;20449;-76
2022/11/16 09:50:35;;;;;;;19.35;13.88;;;11.10;99.90;;;;;;4986723;28;20116;-76
2022/11/16 09:53:42;;;;;;;23.20;14.25;;;11.60;99.90;;;;;;4987159;28;20050;-76
2022/11/16 09:56:19;;;;;;;17.52;13.82;;;11.80;99.90;;;;;;4983300;28;20069;-76
2022/11/16 09:58:59;;;;;;;19.38;12.18;;;11.10;99.90;;;;;;4986451;28;20607;-75
2022/11/16 10:01:36;;;;;;;24.10;14.63;;;11.50;99.90;;;;;;4986855;28;20054;-76
2022/11/16 10:04:42;;;;;;;15.93;13.55;;;11.40;99.90;;;;;;4987342;28;20069;-75
2022/11/16 10:07:18;;;;;;;19.02;14.43;;;11.80;99.90;;;;;;4984021;28;20133;-76
2022/11/16 10:09:45;;;;;;;18.85;12.82;;;11.50;99.90;;;;;;4985462;28;20058;-77
2022/11/16 10:12:38;;;;;;;19.45;14.43;;;11.80;99.90;;;;;;5001212;28;20134;-76
2022/11/16 10:15:46;;;;;;;14.35;12.02;;;11.60;99.90;;;;;;5006760;28;20420;-78
2022/11/16 10:18:25;;;;;;;16.67;11.23;;;11.80;99.90;;;;;;4987937;28;20079;-75
2022/11/16 10:21:12;;;;;;;15.75;10.73;;;11.50;99.90;;;;;;5005548;28;20475;-75
2022/11/16 10:24:02;;;;;;;22.42;12.30;;;11.30;99.90;;;;;;5004728;28;20037;-74
2022/11/16 10:26:37;;;;;;;13.93;10.25;;;11.60;99.90;;;;;;5009824;28;20042;-75
2022/11/16 10:29:32;;;;;;;15.73;10.57;;;11.50;99.90;;;;;;5010975;28;20072;-75
2022/11/16 10:32:27;;;;;;;23.70;12.30;;;11.40;99.90;;;;;;5010027;28;20046;-74
2022/11/16 10:35:23;;;;;;;14.48;11.43;;;11.60;99.90;;;;;;5007164;28;20052;-75
2022/11/16 10:37:50;;;;;;;18.35;10.77;;;11.40;99.90;;;;;;5009174;28;20084;-76
2022/11/16 10:40:20;;;;;;;19.70;12.52;;;11.40;99.90;;;;;;5008653;28;20046;-77
2022/11/16 10:42:56;;;;;;;22.50;10.48;;;11.60;99.90;;;;;;5009089;28;20131;-76
2022/11/16 10:45:42;;;;;;;12.20;8.90;;;11.30;99.90;;;;;;4992390;28;20053;-75
2022/11/16 10:48:29;;;;;;;11.90;8.63;;;11.30;99.90;;;;;;5009516;28;20045;-76
2022/11/16 10:50:55;;;;;;;18.40;8.90;;;11.20;99.90;;;;;;5009129;28;20054;-76
2022/11/16 10:53:34;;;;;;;18.90;10.52;;;11.00;99.90;;;;;;5005178;28;20034;-76
2022/11/16 10:56:26;;;;;;;13.25;9.27;;;11.20;99.90;;;;;;4989747;28;20046;-77
2022/11/16 10:58:58;;;;;;;12.50;8.85;;;11.30;99.90;;;;;;4989248;28;20058;-75
2022/11/16 11:01:38;;;;;;;14.68;9.77;;;11.50;99.90;;;;;;4988542;28;20125;-76
2022/11/16 11:04:31;;;;;;;16.10;10.65;;;11.50;99.90;;;;;;4988597;28;20042;-75
2022/11/16 11:07:28;;;;;;;13.43;8.68;;;11.80;99.90;;;;;;4988017;28;20065;-75
2022/11/16 11:09:54;;;;;;;17.10;8.43;;;11.80;99.90;;;;;;4988649;28;20111;-76
2022/11/16 11:12:36;;;;;;;16.20;9.73;;;11.80;99.90;;;;;;4989103;28;20108;-76
2022/11/16 11:15:05;;;;;;;13.52;8.43;;;11.90;99.90;;;;;;4990299;28;20050;-75
2022/11/16 11:17:33;;;;;;;13.38;9.07;;;11.90;99.90;;;;;;4989881;28;20513;-76
2022/11/16 11:20:03;;;;;;;9.25;6.45;;;11.90;99.90;;;;;;4989520;28;20042;-76
2022/11/16 11:22:30;;;;;;;18.63;8.10;;;12.00;99.90;;;;;;4989956;28;20046;-77
2022/11/16 11:24:56;;;;;;;9.57;6.30;;;12.00;99.90;;;;;;5007881;28;20120;-76
2022/11/16 11:27:30;;;;;;;13.57;6.13;;;12.00;99.90;;;;;;5009097;28;20057;-75
2022/11/16 11:30:00;;;;;;;18.30;7.25;;;12.10;99.90;;;;;;5009052;28;20819;-77
2022/11/16 11:32:33;;;;;;;11.98;4.53;;;12.10;99.90;;;;;;5008818;28;20046;-76
2022/11/16 11:34:59;;;;;;;9.68;4.93;;;12.10;99.90;;;;;;4990912;28;20046;-76
2022/11/16 11:37:32;;;;;;;10.80;5.03;;;11.80;99.90;;;;;;5009225;28;20090;-76
2022/11/16 11:40:18;;;;;;;8.98;5.15;;;11.90;99.90;;;;;;4990405;28;20042;-76
2022/11/16 11:43:02;;;;;;;9.63;5.35;;;11.70;99.90;;;;;;5009055;28;20046;-76
2022/11/16 11:45:31;;;;;;;10.95;6.28;;;11.60;99.90;;;;;;5009772;28;20046;-75
2022/11/16 11:48:30;;;;;;;12.02;6.85;;;11.70;99.90;;;;;;4991128;28;20061;-75
2022/11/16 11:51:38;;;;;;;10.63;5.22;;;11.60;99.90;;;;;;4976597;28;20050;-76
2022/11/16 11:54:12;;;;;;;18.30;6.20;;;11.60;99.90;;;;;;4993902;28;20054;-75
2022/11/16 11:56:38;;;;;;;11.57;5.65;;;11.80;99.90;;;;;;5013203;28;20041;-76
2022/11/16 11:59:04;;;;;;;17.55;5.63;;;11.80;99.90;;;;;;5014190;28;20444;-76
2022/11/16 12:01:35;;;;;;;14.50;6.07;;;11.80;99.90;;;;;;5013232;28;20045;-77
2022/11/16 12:04:07;;;;;;;11.32;4.13;;;11.90;99.90;;;;;;4994497;28;20456;-75
2022/11/16 12:06:42;;;;;;;9.27;4.47;;;12.00;99.90;;;;;;5009195;28;20050;-75
2022/11/16 12:09:18;;;;;;;12.32;4.45;;;11.80;99.90;;;;;;5007579;28;20128;-76
2022/11/16 12:12:05;;;;;;;4.93;2.72;;;11.80;99.90;;;;;;4990431;28;20112;-75
2022/11/16 12:14:39;;;;;;;11.35;5.30;;;11.80;99.90;;;;;;5008538;28;20096;-76
2022/11/16 12:17:21;;;;;;;9.75;3.15;;;11.90;99.90;;;;;;5008716;28;20458;-76
2022/11/16 12:19:58;;;;;;;15.57;4.80;;;12.00;99.90;;;;;;5007702;28;20405;-76
2022/11/16 12:23:15;;;;;;;24.70;3.97;;;11.80;99.90;;;;;;5007072;28;20046;-77
2022/11/16 12:26:10;;;;;;;9.30;2.85;;;11.70;99.90;;;;;;4973901;28;20413;-76
2022/11/16 12:28:53;;;;;;;6.85;4.25;;;11.80;99.90;;;;;;5000597;28;20081;-75
2022/11/16 12:31:31;;;;;;;16.80;4.55;;;11.70;99.90;;;;;;5007428;28;20049;-76
2022/11/16 12:34:06;;;;;;;13.93;3.92;;;11.80;99.90;;;;;;5007042;28;20513;-76
2022/11/16 12:36:53;;;;;;;7.97;3.03;;;11.70;99.90;;;;;;4990069;28;20038;-76
2022/11/16 12:39:23;;;;;;;15.50;4.10;;;11.80;99.90;;;;;;5006238;28;20046;-76
2022/11/16 12:42:14;;;;;;;7.28;2.78;;;11.60;99.90;;;;;;5007101;28;20045;-75
2022/11/16 12:44:49;;;;;;;6.68;2.63;;;11.60;99.90;;;;;;4989691;28;20049;-76
2022/11/16 12:47:56;;;;;;;7.03;1.88;;;11.60;99.90;;;;;;5006980;28;20038;-75
2022/11/16 12:50:49;;;;;;;11.80;3.65;;;11.60;99.90;;;;;;4989512;28;20076;-74
2022/11/16 12:53:26;;;;;;;9.77;2.70;;;11.70;99.90;;;;;;5005597;28;20322;-75
2022/11/16 12:55:54;;;;;;;6.28;1.83;;;11.80;99.90;;;;;;4989460;28;20408;-78
2022/11/16 12:58:46;;;;;;;14.55;4.00;;;11.80;99.90;;;;;;5006714;28;20376;-76
2022/11/16 13:01:44;;;;;;;6.88;2.85;;;11.70;99.90;;;;;;5007053;28;20077;-76
2022/11/16 13:04:16;;;;;;;14.52;3.10;;;11.60;99.90;;;;;;4989517;28;20243;-75
2022/11/16 13:06:50;;;;;;;13.32;2.90;;;11.60;99.90;;;;;;5006401;28;20046;-75
2022/11/16 13:09:22;;;;;;;10.75;2.63;;;11.60;99.90;;;;;;5005924;28;20603;-75
2022/11/16 13:11:57;;;;;;;16.90;3.78;;;11.60;99.90;;;;;;5006087;28;20409;-75
2022/11/16 13:14:28;;;;;;;13.00;3.47;;;11.50;99.90;;;;;;5006643;28;20060;-76
2022/11/16 13:16:56;;;;;;;9.77;2.67;;;11.70;99.90;;;;;;5005848;28;20073;-75
2022/11/16 13:19:23;;;;;;;10.00;2.70;;;11.70;99.90;;;;;;5006916;28;20460;-75
2022/11/16 13:22:01;;;;;;;9.38;2.00;;;11.70;99.90;;;;;;5006189;28;20053;-75
2022/11/16 13:24:36;;;;;;;10.00;3.05;;;11.60;99.90;;;;;;5005300;28;20046;-76
2022/11/16 13:27:44;;;;;;;10.13;3.58;;;11.50;99.90;;;;;;5006585;28;20064;-75
2022/11/16 13:30:22;;;;;;;10.32;2.17;;;11.30;99.90;;;;;;4981411;28;20061;-76
2022/11/16 13:33:19;;;;;;;10.05;2.58;;;11.30;99.90;;;;;;5006155;28;20051;-76
2022/11/16 13:35:45;;;;;;;12.52;3.47;;;11.30;99.90;;;;;;5006218;28;20041;-75
2022/11/16 13:38:14;;;;;;;14.55;3.80;;;11.30;99.90;;;;;;5005533;28;20077;-75